Main page
METAR-TAF:

METAR-TAF

Airports :

Sultan Ismail Petra Airport

Kota Bharu, Malaysia

latitude: 06-10N, longitude: 102-17E, elevation: 5 m

Current weather observation

The report was made 1 hour and 17 minutes ago, at 23:00 UTC
Wind 9 kt from the East, varying between North/Northeast and South/Southeast
Temperature 27°C
Humidity 84%
Pressure 1012 hPa
Visibility: 9000 m
Few clouds at a height of 1000 ft
Scattered clouds at a height of 2000 ft
light rain

METAR: WMKC 172300Z 09009KT 030V160 9000 -RA FEW010 SCT020 27/24 Q1012

Time: 08:17 (00:17 UTC)

Forecast

The report was made 1 hour and 17 minutes ago, at 23:00 UTC
Forecast valid from 18 at 00 UTC to 19 at 00 UTC
Wind 10 kt from the East
Visibility 10 km or more
Few clouds at a height of 2000 ft
Temporary
from 18 at 06 UTC to 18 at 10 UTC
Visibility: 7000 m
Few clouds at a height of 1000 ft
light rain

TAF: WMKC 172300Z 1800/1900 10010KT 9999 FEW020 TEMPO 1806/1810 7000 -RA FEW010

Weather observations and forecasts of more than 4000 airports (METAR and TAF reports).

The available stations are represented by yellow and red dots on the map.

Hover mouse over dot to see the name of the station.

Then click to see weather observations and forecasts.

To change the map : click on the green buttons with a black cross to zoom in, on the green button with a dash to zoom out, or on the green arrows for adjacent maps.


METAR-TAF: